Archival Weather

Tokyo Intl

Tokyo Intl, Japan (RJTT)

Report from: Friday, June 24, 2022 8:30 AM JST
Current time: Tuesday, August 16, 2022 9:51 AM JST

Current weather
Weather history
Weather forecast

Temperature29.0°C (84.2°F)
Heat index33.7°C (92.7°F)
Dew point24.0°C (75.2°F)
Winds 18 kts (9.3 m/s, 20.7 mph) South-Southwest (200°)
Wind gusts 30 kts (15.4 m/s, 34.5 mph)
Visibility6.2 mi. (10 km)
Clouds Ceiling: Broken clouds 0 ft. (0 m)
Few clouds 1,500 ft. (457 m)
Scattered clouds 18,000 ft. (5,486 m)
Altimeter29.71 in.Hg (1006 mB)
Relative humidity75 %
Density altitude2,251 ft. (686 m)
Flight conditions Low Instrument Meteorological Conditions
Raw dataRJTT 232330Z 20018KT 9999 FEW015 SCT180 BKN/// 29/24 Q1006 BECMG 20020G30KT
An error has occurred. This application may no longer respond until reloaded. Reload 🗙